Terminal Aerodrome Forecast
Issued by NWS Northern Indiana

Home | Current Version | Previous Version | Text Only | Print | Product List | Glossary Off
Versions: 1 2 3 4 5 6 7 8 9 10 11 12 13 14 15 16

000
FTUS43 KIWX 140136 AAA
TAFFWA
TAF AMD
KFWA 140136Z 1402/1424 29020G28KT P6SM -SN OVC015
      TEMPO 1402/1404 4SM -SN BR BKN015
     FM140400 31018G26KT P6SM OVC015
     FM141300 36006KT P6SM SCT025=

USA.gov is the U.S. government's official web portal to all federal, state and local government web resources and services.